Time;durP1;ratioP1;P1;durP2;ratioP2;P2;SDS_P1;SDS_P2;PMS_P1;PMS_P2;Temp;Humidity;BMP_temperature;BMP_pressure;BME280_temperature;BME280_humidity;BME280_pressure;Samples;Min_cycle;Max_cycle;Signal;HPM_P1;HPM_P2
2021/03/16 12:57:34;;;;;;;2.95;1.08;;;;;;;;;;5116082;27;20348;-77
2021/03/16 13:00:00;;;;;;;6.43;1.10;;;;;;;;;;5123582;28;20035;-77
2021/03/16 13:02:26;;;;;;;4.68;0.75;;;;;;;;;;5099158;28;20403;-76
2021/03/16 13:04:52;;;;;;;3.63;1.25;;;;;;;;;;5108311;28;20400;-76
2021/03/16 13:07:18;;;;;;;8.27;1.42;;;;;;;;;;5108039;28;20024;-76
2021/03/16 13:09:44;;;;;;;4.50;1.10;;;;;;;;;;5096816;28;20040;-77
2021/03/16 13:12:10;;;;;;;6.20;0.90;;;;;;;;;;5107393;28;20023;-77
2021/03/16 13:14:36;;;;;;;2.35;0.73;;;;;;;;;;5108311;28;20115;-76
2021/03/16 13:17:02;;;;;;;3.45;1.10;;;;;;;;;;5107622;28;20034;-77
2021/03/16 13:19:30;;;;;;;3.25;0.82;;;;;;;;;;5108426;28;20099;-77
2021/03/16 13:21:56;;;;;;;5.22;0.90;;;;;;;;;;5106876;28;20028;-77
2021/03/16 13:24:22;;;;;;;4.05;1.13;;;;;;;;;;5107701;28;20036;-77
2021/03/16 13:26:48;;;;;;;5.75;1.08;;;;;;;;;;5107627;28;20043;-77
2021/03/16 13:29:14;;;;;;;4.13;1.17;;;;;;;;;;5103398;28;20081;-77
2021/03/16 13:31:40;;;;;;;5.90;1.27;;;;;;;;;;5107131;28;20381;-77
2021/03/16 13:34:06;;;;;;;5.90;1.10;;;;;;;;;;5108138;28;20039;-76
2021/03/16 13:36:32;;;;;;;5.95;1.40;;;;;;;;;;5107577;28;20039;-77
2021/03/16 13:38:58;;;;;;;5.93;1.20;;;;;;;;;;5107851;28;20039;-76
2021/03/16 13:41:24;;;;;;;6.63;0.90;;;;;;;;;;5106568;28;20061;-76
2021/03/16 13:43:51;;;;;;;3.33;0.88;;;;;;;;;;5102323;28;20028;-75
2021/03/16 13:46:17;;;;;;;5.38;1.05;;;;;;;;;;5100889;28;20031;-77
2021/03/16 13:48:43;;;;;;;5.97;1.00;;;;;;;;;;5106379;28;20024;-76
2021/03/16 13:51:09;;;;;;;4.97;1.30;;;;;;;;;;5099361;28;20373;-77
2021/03/16 13:53:35;;;;;;;6.30;1.40;;;;;;;;;;5106865;28;20035;-77
2021/03/16 13:56:01;;;;;;;4.38;1.30;;;;;;;;;;5106996;28;20067;-77
2021/03/16 13:58:27;;;;;;;7.05;0.98;;;;;;;;;;5109239;28;20084;-78
2021/03/16 14:00:53;;;;;;;6.88;1.20;;;;;;;;;;5109176;28;20024;-77
2021/03/16 14:03:20;;;;;;;6.05;1.30;;;;;;;;;;5108056;28;20034;-77
2021/03/16 14:05:45;;;;;;;8.13;1.30;;;;;;;;;;5092936;28;20550;-77
2021/03/16 14:08:12;;;;;;;5.65;1.20;;;;;;;;;;5085667;28;20028;-77
2021/03/16 14:10:38;;;;;;;6.22;1.40;;;;;;;;;;5095124;28;20032;-77
2021/03/16 14:13:04;;;;;;;8.55;1.55;;;;;;;;;;5095213;28;20107;-77
2021/03/16 14:15:30;;;;;;;4.90;1.40;;;;;;;;;;5095843;28;20095;-78
2021/03/16 14:17:56;;;;;;;5.30;1.30;;;;;;;;;;5082285;28;20031;-78
2021/03/16 14:20:22;;;;;;;4.18;1.17;;;;;;;;;;5096363;28;20099;-78
2021/03/16 14:22:49;;;;;;;4.90;1.30;;;;;;;;;;5097885;28;20032;-78
2021/03/16 14:25:15;;;;;;;4.20;1.10;;;;;;;;;;5097725;28;20042;-77
2021/03/16 14:27:42;;;;;;;8.88;1.27;;;;;;;;;;5095809;28;20089;-78
2021/03/16 14:30:09;;;;;;;4.60;1.30;;;;;;;;;;5095677;28;20027;-77
2021/03/16 14:32:35;;;;;;;5.20;1.70;;;;;;;;;;5082126;28;20089;-76
2021/03/16 14:35:02;;;;;;;4.97;1.20;;;;;;;;;;5096763;28;20043;-77
2021/03/16 14:37:28;;;;;;;4.82;1.60;;;;;;;;;;5095883;28;20115;-78
2021/03/16 14:39:54;;;;;;;4.88;1.55;;;;;;;;;;5086121;28;20059;-77
2021/03/16 14:42:20;;;;;;;8.43;1.63;;;;;;;;;;5081740;28;20020;-78
2021/03/16 14:44:46;;;;;;;6.30;1.50;;;;;;;;;;5097005;28;20039;-77
2021/03/16 14:47:12;;;;;;;5.55;1.30;;;;;;;;;;5084244;28;20028;-78
2021/03/16 14:49:39;;;;;;;6.25;2.38;;;;;;;;;;5086714;28;20028;-77
2021/03/16 14:52:05;;;;;;;7.55;2.00;;;;;;;;;;5078637;28;20111;-78
2021/03/16 14:54:31;;;;;;;5.25;1.83;;;;;;;;;;5095792;28;20055;-79
2021/03/16 14:56:57;;;;;;;5.25;1.67;;;;;;;;;;5095776;28;20035;-77
2021/03/16 14:59:23;;;;;;;6.47;1.70;;;;;;;;;;5093419;28;20036;-77
2021/03/16 15:01:49;;;;;;;4.80;1.20;;;;;;;;;;5081226;28;20100;-77
2021/03/16 15:04:15;;;;;;;8.18;1.30;;;;;;;;;;5088272;28;20051;-76
2021/03/16 15:06:41;;;;;;;7.10;1.00;;;;;;;;;;5093291;28;20120;-76
2021/03/16 15:09:08;;;;;;;4.18;1.20;;;;;;;;;;5093389;28;20464;-76
2021/03/16 15:11:34;;;;;;;7.80;1.10;;;;;;;;;;5094165;28;20058;-76
2021/03/16 15:14:00;;;;;;;6.50;1.10;;;;;;;;;;5096832;28;20036;-77
2021/03/16 15:16:26;;;;;;;4.65;1.30;;;;;;;;;;5092158;28;20028;-76
2021/03/16 15:18:52;;;;;;;3.92;0.90;;;;;;;;;;5087675;28;20197;-76
2021/03/16 15:21:18;;;;;;;4.30;1.00;;;;;;;;;;5096254;28;20023;-77
2021/03/16 15:23:44;;;;;;;3.85;1.42;;;;;;;;;;5076550;28;20458;-77
2021/03/16 15:26:12;;;;;;;1.95;1.00;;;;;;;;;;5092887;28;20028;-76
2021/03/16 15:28:38;;;;;;;8.15;1.42;;;;;;;;;;5098494;28;20043;-76
2021/03/16 15:31:05;;;;;;;5.05;1.52;;;;;;;;;;5099436;28;20023;-77
2021/03/16 15:33:31;;;;;;;4.82;2.20;;;;;;;;;;5103419;28;20028;-74
2021/03/16 15:35:57;;;;;;;7.47;1.63;;;;;;;;;;5087971;28;20061;-76
2021/03/16 15:38:23;;;;;;;7.53;1.77;;;;;;;;;;5096950;28;20024;-77
2021/03/16 15:40:49;;;;;;;3.72;1.70;;;;;;;;;;5094039;28;20024;-76
2021/03/16 15:43:15;;;;;;;4.97;1.67;;;;;;;;;;5088923;28;20366;-76
2021/03/16 15:45:41;;;;;;;5.40;2.22;;;;;;;;;;5100551;28;20020;-75
2021/03/16 15:48:08;;;;;;;5.82;1.77;;;;;;;;;;5088019;28;20085;-75
2021/03/16 15:50:35;;;;;;;6.82;1.98;;;;;;;;;;5095975;28;20028;-77
2021/03/16 15:53:02;;;;;;;4.30;1.88;;;;;;;;;;5094175;28;20028;-74
2021/03/16 15:55:28;;;;;;;4.95;1.80;;;;;;;;;;5093370;28;20097;-76
2021/03/16 15:57:54;;;;;;;4.47;1.58;;;;;;;;;;5087379;28;20044;-77
2021/03/16 16:00:20;;;;;;;4.60;1.75;;;;;;;;;;5095259;28;20028;-76
2021/03/16 16:02:47;;;;;;;6.57;2.15;;;;;;;;;;5087737;28;20073;-76
2021/03/16 16:05:13;;;;;;;3.15;1.85;;;;;;;;;;5091819;28;20039;-76
2021/03/16 16:07:39;;;;;;;5.72;2.25;;;;;;;;;;5090780;28;20039;-76
2021/03/16 16:10:05;;;;;;;6.43;2.33;;;;;;;;;;5073479;28;20024;-75
2021/03/16 16:12:31;;;;;;;5.72;2.25;;;;;;;;;;5091229;28;20511;-76
2021/03/16 16:14:57;;;;;;;6.70;2.80;;;;;;;;;;5092023;28;20024;-76
2021/03/16 16:17:23;;;;;;;5.88;2.17;;;;;;;;;;5091730;28;20032;-76
2021/03/16 16:19:49;;;;;;;7.40;2.40;;;;;;;;;;5091679;28;20468;-76
2021/03/16 16:22:15;;;;;;;7.38;2.38;;;;;;;;;;5091191;28;20077;-75
2021/03/16 16:24:41;;;;;;;6.90;2.10;;;;;;;;;;5086032;28;20028;-75
2021/03/16 16:27:07;;;;;;;8.10;2.13;;;;;;;;;;5091523;28;20079;-76
2021/03/16 16:29:33;;;;;;;7.70;2.35;;;;;;;;;;5091601;28;20052;-75
2021/03/16 16:31:59;;;;;;;4.57;1.98;;;;;;;;;;5090226;28;20059;-75
2021/03/16 16:34:25;;;;;;;5.97;2.00;;;;;;;;;;5091061;28;20388;-76
2021/03/16 16:36:51;;;;;;;6.38;2.33;;;;;;;;;;5072804;28;20451;-76
2021/03/16 16:39:18;;;;;;;8.10;2.10;;;;;;;;;;5073578;28;20401;-74
2021/03/16 16:41:44;;;;;;;4.28;2.47;;;;;;;;;;5087577;28;20017;-76
2021/03/16 16:44:11;;;;;;;9.60;2.20;;;;;;;;;;5082149;28;20035;-77
2021/03/16 16:46:37;;;;;;;6.05;2.13;;;;;;;;;;5072559;28;20599;-76
2021/03/16 16:49:04;;;;;;;5.80;1.80;;;;;;;;;;5093007;28;20036;-76
2021/03/16 16:51:30;;;;;;;5.50;2.00;;;;;;;;;;5060554;28;20400;-76
2021/03/16 16:53:57;;;;;;;8.00;2.90;;;;;;;;;;5076562;28;20115;-76
2021/03/16 16:56:24;;;;;;;9.50;2.58;;;;;;;;;;5073985;28;20454;-76
2021/03/16 16:58:50;;;;;;;6.57;2.42;;;;;;;;;;5072961;28;20416;-76
2021/03/16 17:01:16;;;;;;;7.97;2.70;;;;;;;;;;5092001;28;20016;-77
2021/03/16 17:03:42;;;;;;;5.78;1.75;;;;;;;;;;5093989;28;20028;-76
2021/03/16 17:06:08;;;;;;;4.50;1.70;;;;;;;;;;5092612;28;20031;-76
2021/03/16 17:08:34;;;;;;;6.35;2.13;;;;;;;;;;5073463;28;20059;-76
2021/03/16 17:11:00;;;;;;;4.22;1.70;;;;;;;;;;5074095;28;20028;-76
2021/03/16 17:13:26;;;;;;;4.50;1.70;;;;;;;;;;5076868;28;20087;-76
2021/03/16 17:15:52;;;;;;;4.63;1.58;;;;;;;;;;5094623;28;20111;-76
2021/03/16 17:18:18;;;;;;;3.00;1.85;;;;;;;;;;5075876;28;20032;-76
2021/03/16 17:20:44;;;;;;;2.53;1.58;;;;;;;;;;5057964;28;20059;-76
2021/03/16 17:23:10;;;;;;;2.90;1.48;;;;;;;;;;5093172;28;20032;-76
2021/03/16 17:25:36;;;;;;;3.30;2.08;;;;;;;;;;5091820;28;20032;-75
2021/03/16 17:28:02;;;;;;;2.67;1.48;;;;;;;;;;5070552;28;20085;-75
2021/03/16 17:30:29;;;;;;;6.05;1.83;;;;;;;;;;5074462;28;20081;-76
2021/03/16 17:32:56;;;;;;;3.42;2.20;;;;;;;;;;5090237;28;20043;-76
2021/03/16 17:35:22;;;;;;;3.53;2.00;;;;;;;;;;5088288;28;20024;-76
2021/03/16 17:37:49;;;;;;;4.00;1.88;;;;;;;;;;5091114;28;20635;-76
2021/03/16 17:40:15;;;;;;;3.47;2.10;;;;;;;;;;5077216;28;20035;-77
2021/03/16 17:42:41;;;;;;;5.35;2.50;;;;;;;;;;5078685;28;20119;-78
2021/03/16 17:45:08;;;;;;;4.30;2.20;;;;;;;;;;5099623;28;20031;-78
2021/03/16 17:47:36;;;;;;;5.20;3.03;;;;;;;;;;5099341;28;20032;-79
2021/03/16 17:50:10;;;;;;;6.05;3.20;;;;;;;;;;5100359;28;20024;-79
2021/03/16 17:52:37;;;;;;;8.27;3.20;;;;;;;;;;5099264;28;20085;-78
2021/03/16 17:55:06;;;;;;;9.40;3.22;;;;;;;;;;5096721;28;20534;-75
2021/03/16 17:57:32;;;;;;;7.13;3.40;;;;;;;;;;5096316;28;20450;-77
2021/03/16 17:59:58;;;;;;;11.05;3.72;;;;;;;;;;5094574;28;20077;-77
2021/03/16 18:02:24;;;;;;;7.05;3.67;;;;;;;;;;5093890;28;20048;-76
2021/03/16 18:04:51;;;;;;;14.20;3.65;;;;;;;;;;5076652;28;20028;-76
2021/03/16 18:07:17;;;;;;;10.05;3.92;;;;;;;;;;5077196;28;20032;-76
2021/03/16 18:09:44;;;;;;;10.55;3.40;;;;;;;;;;5094340;28;20044;-77
2021/03/16 18:12:10;;;;;;;5.10;3.80;;;;;;;;;;5094001;28;20039;-76
2021/03/16 18:14:36;;;;;;;6.47;3.38;;;;;;;;;;5076530;28;20039;-76
2021/03/16 18:17:02;;;;;;;8.50;3.75;;;;;;;;;;5094518;28;20028;-76
2021/03/16 18:19:28;;;;;;;7.82;3.67;;;;;;;;;;5095355;28;20017;-76
2021/03/16 18:21:54;;;;;;;6.25;4.15;;;;;;;;;;5095563;28;20031;-76
2021/03/16 18:24:21;;;;;;;12.07;4.22;;;;;;;;;;5096921;28;20021;-77
2021/03/16 18:26:47;;;;;;;9.82;3.97;;;;;;;;;;5078116;28;20124;-77
2021/03/16 18:29:13;;;;;;;10.20;4.05;;;;;;;;;;5096893;28;20024;-78
2021/03/16 18:31:39;;;;;;;11.15;4.25;;;;;;;;;;5099853;28;20570;-80
2021/03/16 18:34:07;;;;;;;18.73;11.80;;;;;;;;;;5081951;28;20032;-80
2021/03/16 18:36:33;;;;;;;10.43;6.78;;;;;;;;;;5099601;28;20130;-79
2021/03/16 18:38:59;;;;;;;9.20;4.78;;;;;;;;;;5077626;28;20020;-77
2021/03/16 18:41:25;;;;;;;5.95;4.45;;;;;;;;;;5096009;28;20016;-79
2021/03/16 18:43:51;;;;;;;11.40;5.05;;;;;;;;;;5096905;28;20035;-78
2021/03/16 18:46:17;;;;;;;8.60;4.90;;;;;;;;;;5092003;28;20040;-78
2021/03/16 18:48:43;;;;;;;10.77;5.15;;;;;;;;;;5073849;28;20386;-77
2021/03/16 18:51:09;;;;;;;10.27;5.00;;;;;;;;;;5096052;28;20438;-79
2021/03/16 18:53:35;;;;;;;11.40;5.55;;;;;;;;;;5077123;28;20020;-78
